createdAt,value
2023-10-06T04:03:44.732Z,7.01
2023-10-06T04:07:57.652Z,6.97
2023-10-06T04:12:09.283Z,7.00
2023-10-06T04:16:20.943Z,7.02
2023-10-06T04:20:34.415Z,6.98
2023-10-06T04:24:46.008Z,6.82
2023-10-06T04:29:00.388Z,6.85
2023-10-06T04:33:14.881Z,6.55
2023-10-06T04:37:27.198Z,6.71
2023-10-06T04:41:38.838Z,6.74
2023-10-06T04:45:51.444Z,6.65
2023-10-06T04:50:03.131Z,6.41
2023-10-06T04:54:14.856Z,6.32
2023-10-06T04:58:26.404Z,6.45
2023-10-06T05:02:39.551Z,6.47
2023-10-06T05:06:54.303Z,6.36
2023-10-06T05:11:09.594Z,6.35
2023-10-06T05:15:27.313Z,6.45
2023-10-06T05:19:40.057Z,6.54
2023-10-06T05:23:51.661Z,6.47
2023-10-06T05:28:04.461Z,6.43
2023-10-06T05:32:16.055Z,6.56
2023-10-06T05:36:27.631Z,6.60
2023-10-06T05:40:39.182Z,6.67
2023-10-06T05:44:50.733Z,6.53
2023-10-06T05:49:04.591Z,6.59
2023-10-06T05:53:24.213Z,6.63
2023-10-06T05:57:38.592Z,6.47
2023-10-06T06:02:01.644Z,6.42
2023-10-06T06:06:15.882Z,6.64
2023-10-06T06:10:30.758Z,6.52
2023-10-06T06:14:45.510Z,6.62
2023-10-06T06:18:57.535Z,6.48
2023-10-06T06:23:10.820Z,6.45
2023-10-06T06:27:23.803Z,6.57
2023-10-06T06:31:36.041Z,6.53
2023-10-06T06:35:47.717Z,6.60
2023-10-06T06:39:59.339Z,6.69
2023-10-06T06:44:11.440Z,6.79
2023-10-06T06:48:23.046Z,7.04
2023-10-06T06:52:35.525Z,6.97
2023-10-06T06:56:48.523Z,7.02
2023-10-06T07:01:00.166Z,7.28
2023-10-06T07:05:13.390Z,7.66
2023-10-06T07:09:24.996Z,7.74
2023-10-06T07:13:37.465Z,7.91
2023-10-06T07:17:55.302Z,8.13
2023-10-06T07:22:07.325Z,8.18
2023-10-06T07:26:19.007Z,8.27
2023-10-06T07:30:35.450Z,8.26
2023-10-06T07:34:47.378Z,8.43
2023-10-06T07:38:59.670Z,8.72
2023-10-06T07:43:11.936Z,8.78
2023-10-06T07:47:25.611Z,8.99
2023-10-06T07:51:37.256Z,8.82
2023-10-06T07:55:49.980Z,9.07
2023-10-06T08:00:06.387Z,9.24
2023-10-06T08:04:24.263Z,9.44
2023-10-06T08:08:36.519Z,9.41
2023-10-06T08:12:51.136Z,9.39
2023-10-06T08:17:02.781Z,9.48
2023-10-06T08:21:14.429Z,9.48
2023-10-06T08:25:26.681Z,9.44
2023-10-06T08:29:39.584Z,9.37
2023-10-06T08:33:51.227Z,9.36
2023-10-06T08:38:03.229Z,9.60
2023-10-06T08:42:16.692Z,9.86
2023-10-06T08:46:29.046Z,10.06
2023-10-06T08:50:44.683Z,10.21
2023-10-06T08:54:58.056Z,10.45
2023-10-06T08:59:09.864Z,10.69
2023-10-06T09:03:21.811Z,10.83
2023-10-06T09:07:34.126Z,11.10
2023-10-06T09:11:45.669Z,11.25
2023-10-06T09:15:57.213Z,11.05
2023-10-06T09:20:20.258Z,11.04
2023-10-06T09:24:40.224Z,11.25
2023-10-06T09:28:57.155Z,11.52
2023-10-06T09:33:09.600Z,11.80
2023-10-06T09:37:21.858Z,12.07
2023-10-06T09:41:34.675Z,12.24
2023-10-06T09:45:48.276Z,12.56
2023-10-06T09:50:02.208Z,12.96
2023-10-06T09:54:15.524Z,13.37
2023-10-06T09:58:27.872Z,13.74
2023-10-06T10:02:41.733Z,14.08
2023-10-06T10:06:55.050Z,14.44
2023-10-06T10:11:15.668Z,14.71
2023-10-06T10:15:53.776Z,14.92
2023-10-06T10:20:10.392Z,15.09
2023-10-06T10:28:38.150Z,15.32
2023-10-06T10:32:53.639Z,15.30
2023-10-06T10:37:07.315Z,15.41
2023-10-06T10:45:36.120Z,15.70
2023-10-06T10:49:48.688Z,15.72
2023-10-06T10:54:00.987Z,15.80
2023-10-06T10:58:32.501Z,15.99
2023-10-06T11:02:50.877Z,16.20
2023-10-06T11:07:16.539Z,16.39
2023-10-06T11:11:29.201Z,16.66
2023-10-06T11:15:41.266Z,16.90
2023-10-06T11:20:27.343Z,16.86
2023-10-06T11:24:41.759Z,17.00
2023-10-06T11:28:53.357Z,17.16
2023-10-06T11:33:06.850Z,17.35
2023-10-06T11:37:26.426Z,17.49
2023-10-06T11:41:38.973Z,17.61
2023-10-06T11:46:03.309Z,17.63
2023-10-06T11:50:26.449Z,17.78
2023-10-06T11:54:40.265Z,17.77
2023-10-06T11:58:51.880Z,17.90
2023-10-06T12:03:03.851Z,17.96
2023-10-06T12:07:22.633Z,17.90
2023-10-06T12:11:34.578Z,17.94
2023-10-06T12:15:47.393Z,18.15
2023-10-06T12:20:00.381Z,18.31
2023-10-06T12:24:13.332Z,18.48
2023-10-06T12:28:26.991Z,18.70
2023-10-06T12:32:38.732Z,18.88
2023-10-06T12:36:52.947Z,18.85
2023-10-06T12:41:08.188Z,18.60
2023-10-06T12:45:20.230Z,18.51
2023-10-06T12:49:32.187Z,18.44
2023-10-06T12:53:43.860Z,18.60
2023-10-06T12:57:55.429Z,18.68
2023-10-06T13:02:07.072Z,18.51
2023-10-06T13:06:18.645Z,18.17
2023-10-06T13:10:30.286Z,18.11
2023-10-06T13:14:43.690Z,18.08
2023-10-06T13:18:55.396Z,18.00
2023-10-06T13:23:07.011Z,18.09
2023-10-06T13:27:18.626Z,18.32
2023-10-06T13:31:30.194Z,18.34
2023-10-06T13:35:42.928Z,18.26
2023-10-06T13:39:54.617Z,18.30
2023-10-06T13:44:06.252Z,18.31
2023-10-06T13:48:23.638Z,18.24
2023-10-06T13:52:36.474Z,18.13
2023-10-06T13:56:48.031Z,18.14
2023-10-06T14:00:59.932Z,18.22
2023-10-06T14:05:13.109Z,18.26
2023-10-06T14:09:25.011Z,18.21
2023-10-06T14:13:36.646Z,18.15
2023-10-06T14:17:48.458Z,18.05
2023-10-06T14:22:00.090Z,17.97
2023-10-06T14:26:12.348Z,17.92
2023-10-06T14:30:26.655Z,17.74
2023-10-06T14:34:59.567Z,17.61
2023-10-06T14:39:29.881Z,17.58
2023-10-06T14:44:01.185Z,17.55
2023-10-06T14:48:14.965Z,17.60
2023-10-06T14:52:32.437Z,17.63
2023-10-06T14:56:45.092Z,17.48
2023-10-06T15:01:02.960Z,17.35
2023-10-06T15:05:16.339Z,17.22
2023-10-06T15:09:28.295Z,17.15
2023-10-06T15:13:40.541Z,17.13
2023-10-06T15:18:08.895Z,17.08
2023-10-06T15:22:27.725Z,17.02
2023-10-06T15:26:44.155Z,16.95
2023-10-06T15:30:58.577Z,16.88
2023-10-06T15:35:11.136Z,16.80
2023-10-06T15:39:23.890Z,16.78
2023-10-06T15:43:39.528Z,16.75
2023-10-06T15:47:51.395Z,16.72
2023-10-06T15:52:03.932Z,16.68
2023-10-06T15:56:15.905Z,16.64
2023-10-06T16:00:27.970Z,16.58
2023-10-06T16:04:40.228Z,16.46
2023-10-06T16:08:53.568Z,16.30
2023-10-06T16:13:05.338Z,16.15
2023-10-06T16:17:17.021Z,15.98
2023-10-06T16:21:29.617Z,15.86
2023-10-06T16:25:42.184Z,15.66
2023-10-06T16:29:53.844Z,15.57
2023-10-06T16:34:05.410Z,15.42
2023-10-06T16:38:17.015Z,15.21
2023-10-06T16:42:29.902Z,15.03
2023-10-06T16:46:42.138Z,14.82
2023-10-06T16:50:54.853Z,14.61
2023-10-06T16:55:07.410Z,14.45
2023-10-06T16:59:19.061Z,14.27
2023-10-06T17:03:33.419Z,14.08
2023-10-06T17:07:47.949Z,13.92
2023-10-06T17:12:02.044Z,13.76
2023-10-06T17:16:14.986Z,13.61
2023-10-06T17:20:27.022Z,13.46
2023-10-06T17:24:38.838Z,13.33
2023-10-06T17:28:50.426Z,13.19
2023-10-06T17:33:02.217Z,13.08
2023-10-06T17:37:30.364Z,12.95
2023-10-06T17:41:42.575Z,12.85
2023-10-06T17:45:55.706Z,12.77
2023-10-06T17:50:08.235Z,12.67
2023-10-06T17:54:19.883Z,12.57
2023-10-06T17:58:31.532Z,12.50
2023-10-06T18:02:44.016Z,12.42
2023-10-06T18:06:55.698Z,12.30
2023-10-06T18:11:07.292Z,12.28
2023-10-06T18:15:19.675Z,12.24
2023-10-06T18:19:31.592Z,12.12
2023-10-06T18:23:43.364Z,12.24
2023-10-06T18:27:54.934Z,12.16
2023-10-06T18:32:06.671Z,12.04
2023-10-06T18:36:18.516Z,12.00
2023-10-06T18:40:30.496Z,11.93
2023-10-06T18:44:42.051Z,11.79
2023-10-06T18:48:53.694Z,11.72
2023-10-06T18:53:05.275Z,11.59
2023-10-06T18:57:16.834Z,11.53
2023-10-06T19:01:29.345Z,11.41
2023-10-06T19:05:44.445Z,11.41
2023-10-06T19:09:56.049Z,11.32
2023-10-06T19:14:07.626Z,11.24
2023-10-06T19:18:19.357Z,11.26
2023-10-06T19:22:30.950Z,11.22
2023-10-06T19:26:42.561Z,11.19
2023-10-06T19:30:57.676Z,11.04
2023-10-06T19:35:09.550Z,11.01
2023-10-06T19:39:21.148Z,10.90
2023-10-06T19:43:33.990Z,10.81
2023-10-06T19:47:45.982Z,10.72
2023-10-06T19:51:58.566Z,10.67
2023-10-06T19:56:10.168Z,10.61
2023-10-06T20:00:27.186Z,10.51
2023-10-06T20:04:41.391Z,10.44
2023-10-06T20:08:53.763Z,10.42
2023-10-06T20:13:08.696Z,10.39
2023-10-06T20:17:21.444Z,10.40
2023-10-06T20:21:33.290Z,10.32
2023-10-06T20:25:46.004Z,10.19
2023-10-06T20:29:57.594Z,10.15
2023-10-06T20:34:09.270Z,10.10
2023-10-06T20:38:21.509Z,10.02
2023-10-06T20:42:33.109Z,9.95
2023-10-06T20:46:44.969Z,9.87
2023-10-06T20:50:56.740Z,9.82
2023-10-06T20:55:08.798Z,9.85
2023-10-06T20:59:20.438Z,9.75
2023-10-06T21:03:32.696Z,9.69
2023-10-06T21:07:45.189Z,9.61
2023-10-06T21:11:57.074Z,9.64
2023-10-06T21:16:08.656Z,9.64
2023-10-06T21:20:20.653Z,9.56
2023-10-06T21:24:32.687Z,9.57
2023-10-06T21:28:44.301Z,9.49
